PWSweather.com
Personal Weather Stations
Station Observations
MART18
Seleziona Stato..., MartinsicuroIT italia

Seleziona Stato...MartinsicuroIT italia

Lat: 42.885169, Lon: 13.918447300000025

Elevation: 3

Station Type: Davis vantage vp2

branciuno67@gmail.com

High Low Average
Temperature 84.7°F29.3°C 75.9°F24.4°C 80.5°F26.9°C
Dew Point 74.1°F23.4°C 62.8°F17.1°C 68.7°F20.4°C
Winds 11.0 mph 17.7 kmh 0.9 mph 1.4 kmh 5.0 mph S8.0 kmh S
Wind Gusts 17.0 mph27.4 kmh 2.9 mph4.7 kmh 10.0 mph16.1 kmh
Humidity 73% 61% 68%
Pressure 29.93 in1013.5 mb 29.86 in1011.2 mb -
Precipitation 0.00 in0.0 mm - -
Hour Temp Dew Point Humidity Winds Wind Gusts Pressure Precip Precip Rate Daily Precip Total
12:01 AM 77.9°F25.5°C 66.0°F18.9°C 67% 4.9 mph WNW7.9 kmh WNW 8.9 mph14.3 kmh 29.92 in1013.2 mb 0.00 in0.0 mm 0.00 in0.0 mm 0.00 in0.0 mm
12:06 AM 77.7°F25.4°C 65.8°F18.8°C 67% 4.9 mph W7.9 kmh W 8.9 mph14.3 kmh 29.92 in1013.2 mb 0.00 in0.0 mm 0.00 in0.0 mm 0.00 in0.0 mm
12:11 AM 77.7°F25.4°C 65.8°F18.8°C 67% 4.0 mph NNW6.4 kmh NNW 8.9 mph14.3 kmh 29.92 in1013.2 mb 0.00 in0.0 mm 0.00 in0.0 mm 0.00 in0.0 mm
12:16 AM 77.5°F25.3°C 65.7°F18.7°C 67% 4.0 mph W6.4 kmh W 8.9 mph14.3 kmh 29.92 in1013.2 mb 0.00 in0.0 mm 0.00 in0.0 mm 0.00 in0.0 mm
12:21 AM 77.4°F25.2°C 65.5°F18.6°C 67% 4.0 mph WNW6.4 kmh WNW 8.9 mph14.3 kmh 29.92 in1013.2 mb 0.00 in0.0 mm 0.00 in0.0 mm 0.00 in0.0 mm
12:26 AM 77.2°F25.1°C 65.8°F18.8°C 68% 4.0 mph NW6.4 kmh NW 6.9 mph11.1 kmh 29.92 in1013.2 mb 0.00 in0.0 mm 0.00 in0.0 mm 0.00 in0.0 mm
12:31 AM 76.8°F24.9°C 65.5°F18.6°C 68% 4.0 mph NNW6.4 kmh NNW 11.0 mph17.7 kmh 29.91 in1012.9 mb 0.00 in0.0 mm 0.00 in0.0 mm 0.00 in0.0 mm
12:36 AM 77.2°F25.1°C 65.8°F18.8°C 68% 4.9 mph NW7.9 kmh NW 11.0 mph17.7 kmh 29.91 in1012.9 mb 0.00 in0.0 mm 0.00 in0.0 mm 0.00 in0.0 mm
12:41 AM 77.2°F25.1°C 65.8°F18.8°C 68% 4.9 mph NW7.9 kmh NW 10.1 mph16.3 kmh 29.91 in1012.9 mb 0.00 in0.0 mm 0.00 in0.0 mm 0.00 in0.0 mm
12:46 AM 77.2°F25.1°C 65.3°F18.5°C 67% 4.0 mph NW6.4 kmh NW 10.1 mph16.3 kmh 29.91 in1012.9 mb 0.00 in0.0 mm 0.00 in0.0 mm 0.00 in0.0 mm
12:51 AM 77.2°F25.1°C 65.3°F18.5°C 67% 4.9 mph WNW7.9 kmh WNW 10.1 mph16.3 kmh 29.91 in1012.9 mb 0.00 in0.0 mm 0.00 in0.0 mm 0.00 in0.0 mm
12:56 AM 77.2°F25.1°C 65.3°F18.5°C 67% 4.9 mph WNW7.9 kmh WNW 8.1 mph13.0 kmh 29.91 in1012.9 mb 0.00 in0.0 mm 0.00 in0.0 mm 0.00 in0.0 mm
01:01 AM 77.2°F25.1°C 65.3°F18.5°C 67% 4.0 mph W6.4 kmh W 10.1 mph16.3 kmh 29.91 in1012.9 mb 0.00 in0.0 mm 0.00 in0.0 mm 0.00 in0.0 mm
01:06 AM 77.4°F25.2°C 65.1°F18.4°C 66% 4.9 mph W7.9 kmh W 11.0 mph17.7 kmh 29.91 in1012.9 mb 0.00 in0.0 mm 0.00 in0.0 mm 0.00 in0.0 mm
01:11 AM 77.4°F25.2°C 65.1°F18.4°C 66% 6.0 mph WNW9.7 kmh WNW 12.1 mph19.5 kmh 29.90 in1012.5 mb 0.00 in0.0 mm 0.00 in0.0 mm 0.00 in0.0 mm
01:16 AM 77.5°F25.3°C 64.8°F18.2°C 65% 6.0 mph 9.7 kmh 12.1 mph19.5 kmh 29.91 in1012.9 mb 0.00 in0.0 mm 0.00 in0.0 mm 0.00 in0.0 mm
01:21 AM 77.7°F25.4°C 64.6°F18.1°C 64% 4.9 mph WNW7.9 kmh WNW 10.1 mph16.3 kmh 29.91 in1012.9 mb 0.00 in0.0 mm 0.00 in0.0 mm 0.00 in0.0 mm
01:26 AM 77.9°F25.5°C 64.8°F18.2°C 64% 6.0 mph W9.7 kmh W 12.1 mph19.5 kmh 29.90 in1012.5 mb 0.00 in0.0 mm 0.00 in0.0 mm 0.00 in0.0 mm
01:31 AM 78.1°F25.6°C 64.9°F18.3°C 64% 6.9 mph WNW11.1 kmh WNW 15.0 mph24.1 kmh 29.90 in1012.5 mb 0.00 in0.0 mm 0.00 in0.0 mm 0.00 in0.0 mm
01:36 AM 78.3°F25.7°C 64.6°F18.1°C 63% 8.1 mph W13.0 kmh W 11.0 mph17.7 kmh 29.90 in1012.5 mb 0.00 in0.0 mm 0.00 in0.0 mm 0.00 in0.0 mm
01:42 AM 78.3°F25.7°C 64.6°F18.1°C 63% 8.1 mph W13.0 kmh W 12.1 mph19.5 kmh 29.90 in1012.5 mb 0.00 in0.0 mm 0.00 in0.0 mm 0.00 in0.0 mm
01:47 AM 78.3°F25.7°C 64.6°F18.1°C 63% 8.1 mph W13.0 kmh W 13.0 mph20.9 kmh 29.90 in1012.5 mb 0.00 in0.0 mm 0.00 in0.0 mm 0.00 in0.0 mm
01:52 AM 78.1°F25.6°C 64.4°F18.0°C 63% 6.0 mph W9.7 kmh W 13.0 mph20.9 kmh 29.90 in1012.5 mb 0.00 in0.0 mm 0.00 in0.0 mm 0.00 in0.0 mm
01:57 AM 78.3°F25.7°C 64.2°F17.9°C 62% 4.9 mph W7.9 kmh W 10.1 mph16.3 kmh 29.90 in1012.5 mb 0.00 in0.0 mm 0.00 in0.0 mm 0.00 in0.0 mm
02:02 AM 78.3°F25.7°C 64.2°F17.9°C 62% 6.0 mph NW9.7 kmh NW 10.1 mph16.3 kmh 29.90 in1012.5 mb 0.00 in0.0 mm 0.00 in0.0 mm 0.00 in0.0 mm
02:07 AM 78.1°F25.6°C 64.4°F18.0°C 63% 4.9 mph W7.9 kmh W 8.1 mph13.0 kmh 29.90 in1012.5 mb 0.00 in0.0 mm 0.00 in0.0 mm 0.00 in0.0 mm
02:12 AM 77.7°F25.4°C 64.0°F17.8°C 63% 2.9 mph WNW4.7 kmh WNW 8.1 mph13.0 kmh 29.90 in1012.5 mb 0.00 in0.0 mm 0.00 in0.0 mm 0.00 in0.0 mm
02:17 AM 77.7°F25.4°C 64.0°F17.8°C 63% 2.9 mph NW4.7 kmh NW 8.9 mph14.3 kmh 29.90 in1012.5 mb 0.00 in0.0 mm 0.00 in0.0 mm 0.00 in0.0 mm
02:22 AM 77.5°F25.3°C 63.9°F17.7°C 63% 4.0 mph NW6.4 kmh NW 8.9 mph14.3 kmh 29.90 in1012.5 mb 0.00 in0.0 mm 0.00 in0.0 mm 0.00 in0.0 mm
02:27 AM 77.5°F25.3°C 63.9°F17.7°C 63% 4.0 mph W6.4 kmh W 10.1 mph16.3 kmh 29.90 in1012.5 mb 0.00 in0.0 mm 0.00 in0.0 mm 0.00 in0.0 mm
02:32 AM 77.5°F25.3°C 63.9°F17.7°C 63% 4.0 mph NW6.4 kmh NW 8.9 mph14.3 kmh 29.90 in1012.5 mb 0.00 in0.0 mm 0.00 in0.0 mm 0.00 in0.0 mm
02:37 AM 77.4°F25.2°C 63.9°F17.7°C 63% 4.0 mph NW6.4 kmh NW 10.1 mph16.3 kmh 29.90 in1012.5 mb 0.00 in0.0 mm 0.00 in0.0 mm 0.00 in0.0 mm
02:42 AM 77.2°F25.1°C 64.0°F17.8°C 64% 2.9 mph NW4.7 kmh NW 8.1 mph13.0 kmh 29.90 in1012.5 mb 0.00 in0.0 mm 0.00 in0.0 mm 0.00 in0.0 mm
02:47 AM 77.0°F25.0°C 63.9°F17.7°C 64% 2.9 mph WSW4.7 kmh WSW 8.9 mph14.3 kmh 29.90 in1012.5 mb 0.00 in0.0 mm 0.00 in0.0 mm 0.00 in0.0 mm
02:52 AM 77.0°F25.0°C 63.9°F17.7°C 64% 4.0 mph WNW6.4 kmh WNW 12.1 mph19.5 kmh 29.90 in1012.5 mb 0.00 in0.0 mm 0.00 in0.0 mm 0.00 in0.0 mm
02:57 AM 77.2°F25.1°C 63.7°F17.6°C 63% 4.9 mph WNW7.9 kmh WNW 8.9 mph14.3 kmh 29.90 in1012.5 mb 0.00 in0.0 mm 0.00 in0.0 mm 0.00 in0.0 mm
03:02 AM 77.2°F25.1°C 63.7°F17.6°C 63% 4.0 mph W6.4 kmh W 8.1 mph13.0 kmh 29.90 in1012.5 mb 0.00 in0.0 mm 0.00 in0.0 mm 0.00 in0.0 mm
03:07 AM 77.4°F25.2°C 63.9°F17.7°C 63% 4.0 mph W6.4 kmh W 8.9 mph14.3 kmh 29.90 in1012.5 mb 0.00 in0.0 mm 0.00 in0.0 mm 0.00 in0.0 mm
03:12 AM 77.4°F25.2°C 63.3°F17.4°C 62% 4.0 mph WNW6.4 kmh WNW 8.9 mph14.3 kmh 29.89 in1012.2 mb 0.00 in0.0 mm 0.00 in0.0 mm 0.00 in0.0 mm
03:17 AM 77.4°F25.2°C 63.3°F17.4°C 62% 4.0 mph WNW6.4 kmh WNW 8.9 mph14.3 kmh 29.89 in1012.2 mb 0.00 in0.0 mm 0.00 in0.0 mm 0.00 in0.0 mm
03:22 AM 77.4°F25.2°C 63.3°F17.4°C 62% 4.0 mph W6.4 kmh W 8.9 mph14.3 kmh 29.89 in1012.2 mb 0.00 in0.0 mm 0.00 in0.0 mm 0.00 in0.0 mm
03:27 AM 77.4°F25.2°C 63.3°F17.4°C 62% 4.9 mph WNW7.9 kmh WNW 8.9 mph14.3 kmh 29.89 in1012.2 mb 0.00 in0.0 mm 0.00 in0.0 mm 0.00 in0.0 mm
03:32 AM 77.4°F25.2°C 63.3°F17.4°C 62% 4.9 mph W7.9 kmh W 8.9 mph14.3 kmh 29.89 in1012.2 mb 0.00 in0.0 mm 0.00 in0.0 mm 0.00 in0.0 mm
03:37 AM 77.4°F25.2°C 63.3°F17.4°C 62% 4.9 mph W7.9 kmh W 8.9 mph14.3 kmh 29.89 in1012.2 mb 0.00 in0.0 mm 0.00 in0.0 mm 0.00 in0.0 mm
03:42 AM 77.4°F25.2°C 63.3°F17.4°C 62% 4.9 mph W7.9 kmh W 8.9 mph14.3 kmh 29.89 in1012.2 mb 0.00 in0.0 mm 0.00 in0.0 mm 0.00 in0.0 mm
03:47 AM 77.4°F25.2°C 63.3°F17.4°C 62% 4.0 mph WNW6.4 kmh WNW 8.9 mph14.3 kmh 29.89 in1012.2 mb 0.00 in0.0 mm 0.00 in0.0 mm 0.00 in0.0 mm
03:52 AM 77.2°F25.1°C 63.1°F17.3°C 62% 4.0 mph WNW6.4 kmh WNW 8.9 mph14.3 kmh 29.89 in1012.2 mb 0.00 in0.0 mm 0.00 in0.0 mm 0.00 in0.0 mm
03:57 AM 77.2°F25.1°C 63.1°F17.3°C 62% 4.0 mph NW6.4 kmh NW 10.1 mph16.3 kmh 29.89 in1012.2 mb 0.00 in0.0 mm 0.00 in0.0 mm 0.00 in0.0 mm
04:02 AM 77.2°F25.1°C 63.1°F17.3°C 62% 4.9 mph W7.9 kmh W 10.1 mph16.3 kmh 29.89 in1012.2 mb 0.00 in0.0 mm 0.00 in0.0 mm 0.00 in0.0 mm
04:07 AM 77.2°F25.1°C 63.1°F17.3°C 62% 6.0 mph WSW9.7 kmh WSW 10.1 mph16.3 kmh 29.88 in1011.9 mb 0.00 in0.0 mm 0.00 in0.0 mm 0.00 in0.0 mm
04:12 AM 77.2°F25.1°C 63.1°F17.3°C 62% 4.9 mph W7.9 kmh W 8.9 mph14.3 kmh 29.88 in1011.9 mb 0.00 in0.0 mm 0.00 in0.0 mm 0.00 in0.0 mm
04:17 AM 77.0°F25.0°C 63.0°F17.2°C 62% 6.0 mph WNW9.7 kmh WNW 11.0 mph17.7 kmh 29.89 in1012.2 mb 0.00 in0.0 mm 0.00 in0.0 mm 0.00 in0.0 mm
04:22 AM 76.8°F24.9°C 63.3°F17.4°C 63% 4.9 mph W7.9 kmh W 10.1 mph16.3 kmh 29.89 in1012.2 mb 0.00 in0.0 mm 0.00 in0.0 mm 0.00 in0.0 mm
04:27 AM 76.8°F24.9°C 63.3°F17.4°C 63% 4.0 mph NW6.4 kmh NW 8.9 mph14.3 kmh 29.89 in1012.2 mb 0.00 in0.0 mm 0.00 in0.0 mm 0.00 in0.0 mm
04:32 AM 76.6°F24.8°C 63.1°F17.3°C 63% 4.0 mph NW6.4 kmh NW 8.9 mph14.3 kmh 29.89 in1012.2 mb 0.00 in0.0 mm 0.00 in0.0 mm 0.00 in0.0 mm
04:37 AM 76.5°F24.7°C 63.3°F17.4°C 64% 4.9 mph WNW7.9 kmh WNW 8.1 mph13.0 kmh 29.89 in1012.2 mb 0.00 in0.0 mm 0.00 in0.0 mm 0.00 in0.0 mm
04:42 AM 76.3°F24.6°C 63.1°F17.3°C 64% 4.9 mph W7.9 kmh W 8.9 mph14.3 kmh 29.88 in1011.9 mb 0.00 in0.0 mm 0.00 in0.0 mm 0.00 in0.0 mm
04:47 AM 76.5°F24.7°C 63.3°F17.4°C 64% 4.9 mph W7.9 kmh W 12.1 mph19.5 kmh 29.88 in1011.9 mb 0.00 in0.0 mm 0.00 in0.0 mm 0.00 in0.0 mm
04:52 AM 76.6°F24.8°C 63.1°F17.3°C 63% 4.9 mph W7.9 kmh W 10.1 mph16.3 kmh 29.88 in1011.9 mb 0.00 in0.0 mm 0.00 in0.0 mm 0.00 in0.0 mm
04:57 AM 76.8°F24.9°C 62.8°F17.1°C 62% 4.9 mph WNW7.9 kmh WNW 8.1 mph13.0 kmh 29.88 in1011.9 mb 0.00 in0.0 mm 0.00 in0.0 mm 0.00 in0.0 mm
05:02 AM 77.2°F25.1°C 63.1°F17.3°C 62% 4.9 mph W7.9 kmh W 11.0 mph17.7 kmh 29.88 in1011.9 mb 0.00 in0.0 mm 0.00 in0.0 mm 0.00 in0.0 mm
05:07 AM 77.4°F25.2°C 62.8°F17.1°C 61% 4.9 mph N7.9 kmh N 11.0 mph17.7 kmh 29.88 in1011.9 mb 0.00 in0.0 mm 0.00 in0.0 mm 0.00 in0.0 mm
05:12 AM 77.4°F25.2°C 63.3°F17.4°C 62% 4.9 mph W7.9 kmh W 10.1 mph16.3 kmh 29.88 in1011.9 mb 0.00 in0.0 mm 0.00 in0.0 mm 0.00 in0.0 mm
05:17 AM 77.4°F25.2°C 63.3°F17.4°C 62% 4.0 mph WNW6.4 kmh WNW 10.1 mph16.3 kmh 29.88 in1011.9 mb 0.00 in0.0 mm 0.00 in0.0 mm 0.00 in0.0 mm
05:22 AM 77.2°F25.1°C 63.1°F17.3°C 62% 4.0 mph NW6.4 kmh NW 10.1 mph16.3 kmh 29.88 in1011.9 mb 0.00 in0.0 mm 0.00 in0.0 mm 0.00 in0.0 mm
05:27 AM 76.8°F24.9°C 62.8°F17.1°C 62% 4.9 mph NW7.9 kmh NW 8.9 mph14.3 kmh 29.89 in1012.2 mb 0.00 in0.0 mm 0.00 in0.0 mm 0.00 in0.0 mm
05:32 AM 76.6°F24.8°C 63.1°F17.3°C 63% 4.0 mph NW6.4 kmh NW 8.9 mph14.3 kmh 29.88 in1011.9 mb 0.00 in0.0 mm 0.00 in0.0 mm 0.00 in0.0 mm
05:37 AM 76.5°F24.7°C 63.3°F17.4°C 64% 4.0 mph WNW6.4 kmh WNW 8.1 mph13.0 kmh 29.88 in1011.9 mb 0.00 in0.0 mm 0.00 in0.0 mm 0.00 in0.0 mm
05:42 AM 76.1°F24.5°C 63.0°F17.2°C 64% 4.0 mph W6.4 kmh W 8.9 mph14.3 kmh 29.89 in1012.2 mb 0.00 in0.0 mm 0.00 in0.0 mm 0.00 in0.0 mm
05:47 AM 75.9°F24.4°C 62.8°F17.1°C 64% 4.9 mph WNW7.9 kmh WNW 10.1 mph16.3 kmh 29.89 in1012.2 mb 0.00 in0.0 mm 0.00 in0.0 mm 0.00 in0.0 mm
05:52 AM 76.1°F24.5°C 63.5°F17.5°C 65% 4.9 mph W7.9 kmh W 8.9 mph14.3 kmh 29.89 in1012.2 mb 0.00 in0.0 mm 0.00 in0.0 mm 0.00 in0.0 mm
05:57 AM 76.5°F24.7°C 63.3°F17.4°C 64% 4.9 mph WNW7.9 kmh WNW 12.1 mph19.5 kmh 29.89 in1012.2 mb 0.00 in0.0 mm 0.00 in0.0 mm 0.00 in0.0 mm
06:02 AM 76.5°F24.7°C 63.9°F17.7°C 65% 4.9 mph NW7.9 kmh NW 11.0 mph17.7 kmh 29.89 in1012.2 mb 0.00 in0.0 mm 0.00 in0.0 mm 0.00 in0.0 mm
06:07 AM 76.5°F24.7°C 63.9°F17.7°C 65% 4.9 mph WNW7.9 kmh WNW 10.1 mph16.3 kmh 29.89 in1012.2 mb 0.00 in0.0 mm 0.00 in0.0 mm 0.00 in0.0 mm
06:12 AM 76.5°F24.7°C 63.9°F17.7°C 65% 4.9 mph NW7.9 kmh NW 11.0 mph17.7 kmh 29.89 in1012.2 mb 0.00 in0.0 mm 0.00 in0.0 mm 0.00 in0.0 mm
06:17 AM 76.6°F24.8°C 64.0°F17.8°C 65% 4.9 mph WNW7.9 kmh WNW 8.9 mph14.3 kmh 29.89 in1012.2 mb 0.00 in0.0 mm 0.00 in0.0 mm 0.00 in0.0 mm
06:22 AM 76.8°F24.9°C 64.2°F17.9°C 65% 4.9 mph WNW7.9 kmh WNW 11.0 mph17.7 kmh 29.89 in1012.2 mb 0.00 in0.0 mm 0.00 in0.0 mm 0.00 in0.0 mm
06:27 AM 77.2°F25.1°C 64.6°F18.1°C 65% 4.9 mph W7.9 kmh W 11.0 mph17.7 kmh 29.89 in1012.2 mb 0.00 in0.0 mm 0.00 in0.0 mm 0.00 in0.0 mm
06:32 AM 77.5°F25.3°C 64.8°F18.2°C 65% 4.9 mph W7.9 kmh W 8.9 mph14.3 kmh 29.89 in1012.2 mb 0.00 in0.0 mm 0.00 in0.0 mm 0.00 in0.0 mm
06:37 AM 78.1°F25.6°C 65.3°F18.5°C 65% 4.9 mph WNW7.9 kmh WNW 10.1 mph16.3 kmh 29.90 in1012.5 mb 0.00 in0.0 mm 0.00 in0.0 mm 0.00 in0.0 mm
06:42 AM 78.3°F25.7°C 65.5°F18.6°C 65% 4.0 mph WNW6.4 kmh WNW 10.1 mph16.3 kmh 29.89 in1012.2 mb 0.00 in0.0 mm 0.00 in0.0 mm 0.00 in0.0 mm
06:47 AM 78.3°F25.7°C 65.5°F18.6°C 65% 4.0 mph NW6.4 kmh NW 10.1 mph16.3 kmh 29.90 in1012.5 mb 0.00 in0.0 mm 0.00 in0.0 mm 0.00 in0.0 mm
06:52 AM 78.4°F25.8°C 65.7°F18.7°C 65% 4.9 mph WNW7.9 kmh WNW 8.9 mph14.3 kmh 29.90 in1012.5 mb 0.00 in0.0 mm 0.00 in0.0 mm 0.00 in0.0 mm
06:57 AM 78.3°F25.7°C 65.5°F18.6°C 65% 4.0 mph W6.4 kmh W 10.1 mph16.3 kmh 29.90 in1012.5 mb 0.00 in0.0 mm 0.00 in0.0 mm 0.00 in0.0 mm
07:02 AM 78.3°F25.7°C 65.5°F18.6°C 65% 4.9 mph NW7.9 kmh NW 11.0 mph17.7 kmh 29.90 in1012.5 mb 0.00 in0.0 mm 0.00 in0.0 mm 0.00 in0.0 mm
07:07 AM 78.4°F25.8°C 65.7°F18.7°C 65% 4.9 mph WNW7.9 kmh WNW 8.9 mph14.3 kmh 29.90 in1012.5 mb 0.00 in0.0 mm 0.00 in0.0 mm 0.00 in0.0 mm
07:12 AM 78.6°F25.9°C 65.8°F18.8°C 65% 4.9 mph W7.9 kmh W 12.1 mph19.5 kmh 29.90 in1012.5 mb 0.00 in0.0 mm 0.00 in0.0 mm 0.00 in0.0 mm
07:17 AM 79.0°F26.1°C 66.2°F19.0°C 65% 6.0 mph NW9.7 kmh NW 11.0 mph17.7 kmh 29.90 in1012.5 mb 0.00 in0.0 mm 0.00 in0.0 mm 0.00 in0.0 mm
07:22 AM 79.2°F26.2°C 66.4°F19.1°C 65% 4.9 mph WSW7.9 kmh WSW 8.9 mph14.3 kmh 29.90 in1012.5 mb 0.00 in0.0 mm 0.00 in0.0 mm 0.00 in0.0 mm
07:27 AM 79.2°F26.2°C 66.4°F19.1°C 65% 6.0 mph WNW9.7 kmh WNW 10.1 mph16.3 kmh 29.90 in1012.5 mb 0.00 in0.0 mm 0.00 in0.0 mm 0.00 in0.0 mm
07:32 AM 79.3°F26.3°C 66.6°F19.2°C 65% 6.0 mph WSW9.7 kmh WSW 10.1 mph16.3 kmh 29.90 in1012.5 mb 0.00 in0.0 mm 0.00 in0.0 mm 0.00 in0.0 mm
07:37 AM 79.3°F26.3°C 66.6°F19.2°C 65% 4.9 mph W7.9 kmh W 8.9 mph14.3 kmh 29.90 in1012.5 mb 0.00 in0.0 mm 0.00 in0.0 mm 0.00 in0.0 mm
07:42 AM 79.3°F26.3°C 66.6°F19.2°C 65% 6.0 mph WNW9.7 kmh WNW 13.0 mph20.9 kmh 29.91 in1012.9 mb 0.00 in0.0 mm 0.00 in0.0 mm 0.00 in0.0 mm
07:47 AM 79.5°F26.4°C 66.7°F19.3°C 65% 6.0 mph NW9.7 kmh NW 12.1 mph19.5 kmh 29.91 in1012.9 mb 0.00 in0.0 mm 0.00 in0.0 mm 0.00 in0.0 mm
07:52 AM 79.7°F26.5°C 66.9°F19.4°C 65% 6.0 mph NW9.7 kmh NW 12.1 mph19.5 kmh 29.91 in1012.9 mb 0.00 in0.0 mm 0.00 in0.0 mm 0.00 in0.0 mm
07:57 AM 80.1°F26.7°C 67.3°F19.6°C 65% 4.9 mph NW7.9 kmh NW 8.9 mph14.3 kmh 29.90 in1012.5 mb 0.00 in0.0 mm 0.00 in0.0 mm 0.00 in0.0 mm
08:02 AM 80.2°F26.8°C 67.5°F19.7°C 65% 4.9 mph WNW7.9 kmh WNW 11.0 mph17.7 kmh 29.91 in1012.9 mb 0.00 in0.0 mm 0.00 in0.0 mm 0.00 in0.0 mm
08:07 AM 80.4°F26.9°C 67.1°F19.5°C 64% 4.9 mph NW7.9 kmh NW 12.1 mph19.5 kmh 29.91 in1012.9 mb 0.00 in0.0 mm 0.00 in0.0 mm 0.00 in0.0 mm
08:12 AM 80.8°F27.1°C 67.5°F19.7°C 64% 4.9 mph WNW7.9 kmh WNW 8.9 mph14.3 kmh 29.91 in1012.9 mb 0.00 in0.0 mm 0.00 in0.0 mm 0.00 in0.0 mm
08:17 AM 81.1°F27.3°C 67.8°F19.9°C 64% 4.9 mph W7.9 kmh W 12.0 mph19.3 kmh 29.91 in1012.9 mb 0.00 in0.0 mm 0.00 in0.0 mm 0.00 in0.0 mm
08:22 AM 81.3°F27.4°C 68.0°F20.0°C 64% 4.9 mph N7.9 kmh N 10.1 mph16.3 kmh 29.91 in1012.9 mb 0.00 in0.0 mm 0.00 in0.0 mm 0.00 in0.0 mm
08:27 AM 81.7°F27.6°C 68.4°F20.2°C 64% 4.0 mph N6.4 kmh N 10.1 mph16.3 kmh 29.91 in1012.9 mb 0.00 in0.0 mm 0.00 in0.0 mm 0.00 in0.0 mm
08:32 AM 81.9°F27.7°C 68.9°F20.5°C 65% 4.9 mph NNE7.9 kmh NNE 8.9 mph14.3 kmh 29.91 in1012.9 mb 0.00 in0.0 mm 0.00 in0.0 mm 0.00 in0.0 mm
08:37 AM 82.0°F27.8°C 69.1°F20.6°C 65% 6.0 mph NNW9.7 kmh NNW 11.0 mph17.7 kmh 29.92 in1013.2 mb 0.00 in0.0 mm 0.00 in0.0 mm 0.00 in0.0 mm
08:42 AM 82.4°F28.0°C 69.4°F20.8°C 65% 6.0 mph NW9.7 kmh NW 12.1 mph19.5 kmh 29.92 in1013.2 mb 0.00 in0.0 mm 0.00 in0.0 mm 0.00 in0.0 mm
08:47 AM 82.6°F28.1°C 70.0°F21.1°C 66% 6.0 mph NNE9.7 kmh NNE 11.0 mph17.7 kmh 29.91 in1012.9 mb 0.00 in0.0 mm 0.00 in0.0 mm 0.00 in0.0 mm
08:52 AM 82.4°F28.0°C 70.0°F21.1°C 66% 6.9 mph NNE11.1 kmh NNE 15.0 mph24.1 kmh 29.91 in1012.9 mb 0.00 in0.0 mm 0.00 in0.0 mm 0.00 in0.0 mm
08:57 AM 82.8°F28.2°C 70.7°F21.5°C 67% 6.9 mph N11.1 kmh N 11.0 mph17.7 kmh 29.91 in1012.9 mb 0.00 in0.0 mm 0.00 in0.0 mm 0.00 in0.0 mm
09:02 AM 82.9°F28.3°C 70.3°F21.3°C 66% 6.0 mph N9.7 kmh N 11.0 mph17.7 kmh 29.91 in1012.9 mb 0.00 in0.0 mm 0.00 in0.0 mm 0.00 in0.0 mm
09:07 AM 83.1°F28.4°C 70.5°F21.4°C 66% 6.0 mph N9.7 kmh N 10.1 mph16.3 kmh 29.91 in1012.9 mb 0.00 in0.0 mm 0.00 in0.0 mm 0.00 in0.0 mm
09:12 AM 82.9°F28.3°C 70.3°F21.3°C 66% 6.9 mph N11.1 kmh N 14.1 mph22.7 kmh 29.92 in1013.2 mb 0.00 in0.0 mm 0.00 in0.0 mm 0.00 in0.0 mm
09:17 AM 82.9°F28.3°C 70.3°F21.3°C 66% 6.9 mph NNE11.1 kmh NNE 13.0 mph20.9 kmh 29.91 in1012.9 mb 0.00 in0.0 mm 0.00 in0.0 mm 0.00 in0.0 mm
09:22 AM 83.1°F28.4°C 70.5°F21.4°C 66% 8.1 mph NNE13.0 kmh NNE 13.0 mph20.9 kmh 29.92 in1013.2 mb 0.00 in0.0 mm 0.00 in0.0 mm 0.00 in0.0 mm
09:27 AM 82.9°F28.3°C 70.3°F21.3°C 66% 8.1 mph NNW13.0 kmh NNW 11.0 mph17.7 kmh 29.92 in1013.2 mb 0.00 in0.0 mm 0.00 in0.0 mm 0.00 in0.0 mm
09:32 AM 83.1°F28.4°C 70.5°F21.4°C 66% 8.1 mph NNW13.0 kmh NNW 12.1 mph19.5 kmh 29.91 in1012.9 mb 0.00 in0.0 mm 0.00 in0.0 mm 0.00 in0.0 mm
09:37 AM 83.3°F28.5°C 70.3°F21.3°C 65% 6.9 mph N11.1 kmh N 12.1 mph19.5 kmh 29.91 in1012.9 mb 0.00 in0.0 mm 0.00 in0.0 mm 0.00 in0.0 mm
09:42 AM 83.3°F28.5°C 70.7°F21.5°C 66% 6.9 mph N11.1 kmh N 12.1 mph19.5 kmh 29.91 in1012.9 mb 0.00 in0.0 mm 0.00 in0.0 mm 0.00 in0.0 mm
09:47 AM 83.5°F28.6°C 71.4°F21.9°C 67% 6.9 mph N11.1 kmh N 12.1 mph19.5 kmh 29.91 in1012.9 mb 0.00 in0.0 mm 0.00 in0.0 mm 0.00 in0.0 mm
09:52 AM 83.7°F28.7°C 71.6°F22.0°C 67% 6.9 mph NNE11.1 kmh NNE 13.0 mph20.9 kmh 29.91 in1012.9 mb 0.00 in0.0 mm 0.00 in0.0 mm 0.00 in0.0 mm
09:57 AM 83.7°F28.7°C 72.3°F22.4°C 69% 6.9 mph NNE11.1 kmh NNE 13.0 mph20.9 kmh 29.91 in1012.9 mb 0.00 in0.0 mm 0.00 in0.0 mm 0.00 in0.0 mm
10:02 AM 83.7°F28.7°C 72.3°F22.4°C 69% 8.1 mph NE13.0 kmh NE 13.0 mph20.9 kmh 29.91 in1012.9 mb 0.00 in0.0 mm 0.00 in0.0 mm 0.00 in0.0 mm
10:07 AM 83.7°F28.7°C 72.9°F22.7°C 70% 8.1 mph N13.0 kmh N 13.0 mph20.9 kmh 29.92 in1013.2 mb 0.00 in0.0 mm 0.00 in0.0 mm 0.00 in0.0 mm
10:12 AM 83.5°F28.6°C 72.3°F22.4°C 69% 8.9 mph NW14.3 kmh NW 15.0 mph24.1 kmh 29.92 in1013.2 mb 0.00 in0.0 mm 0.00 in0.0 mm 0.00 in0.0 mm
10:17 AM 83.7°F28.7°C 72.9°F22.7°C 70% 8.9 mph N14.3 kmh N 15.0 mph24.1 kmh 29.92 in1013.2 mb 0.00 in0.0 mm 0.00 in0.0 mm 0.00 in0.0 mm
10:22 AM 83.1°F28.4°C 72.3°F22.4°C 70% 8.9 mph NNE14.3 kmh NNE 17.0 mph27.4 kmh 29.92 in1013.2 mb 0.00 in0.0 mm 0.00 in0.0 mm 0.00 in0.0 mm
10:27 AM 83.1°F28.4°C 72.3°F22.4°C 70% 10.1 mph N16.3 kmh N 15.0 mph24.1 kmh 29.92 in1013.2 mb 0.00 in0.0 mm 0.00 in0.0 mm 0.00 in0.0 mm
10:32 AM 83.3°F28.5°C 72.5°F22.5°C 70% 10.1 mph NE16.3 kmh NE 15.0 mph24.1 kmh 29.92 in1013.2 mb 0.00 in0.0 mm 0.00 in0.0 mm 0.00 in0.0 mm
10:37 AM 83.1°F28.4°C 72.3°F22.4°C 70% 10.1 mph NNE16.3 kmh NNE 16.1 mph25.9 kmh 29.92 in1013.2 mb 0.00 in0.0 mm 0.00 in0.0 mm 0.00 in0.0 mm
10:42 AM 83.5°F28.6°C 73.0°F22.8°C 71% 10.1 mph NNE16.3 kmh NNE 15.0 mph24.1 kmh 29.92 in1013.2 mb 0.00 in0.0 mm 0.00 in0.0 mm 0.00 in0.0 mm
10:47 AM 83.1°F28.4°C 72.7°F22.6°C 71% 10.1 mph 16.3 kmh 15.0 mph24.1 kmh 29.92 in1013.2 mb 0.00 in0.0 mm 0.00 in0.0 mm 0.00 in0.0 mm
10:52 AM 83.1°F28.4°C 73.2°F22.9°C 72% 11.0 mph NNE17.7 kmh NNE 17.0 mph27.4 kmh 29.92 in1013.2 mb 0.00 in0.0 mm 0.00 in0.0 mm 0.00 in0.0 mm
10:57 AM 83.1°F28.4°C 73.2°F22.9°C 72% 11.0 mph NE17.7 kmh NE 16.1 mph25.9 kmh 29.93 in1013.5 mb 0.00 in0.0 mm 0.00 in0.0 mm 0.00 in0.0 mm
11:02 AM 83.7°F28.7°C 73.6°F23.1°C 72% 10.1 mph NE16.3 kmh NE 16.1 mph25.9 kmh 29.92 in1013.2 mb 0.00 in0.0 mm 0.00 in0.0 mm 0.00 in0.0 mm
11:07 AM 83.7°F28.7°C 74.1°F23.4°C 73% 8.9 mph N14.3 kmh N 15.0 mph24.1 kmh 29.92 in1013.2 mb 0.00 in0.0 mm 0.00 in0.0 mm 0.00 in0.0 mm
11:12 AM 83.5°F28.6°C 73.9°F23.3°C 73% 8.9 mph NE14.3 kmh NE 14.1 mph22.7 kmh 29.93 in1013.5 mb 0.00 in0.0 mm 0.00 in0.0 mm 0.00 in0.0 mm
11:17 AM 83.5°F28.6°C 73.6°F23.1°C 72% 8.9 mph NNE14.3 kmh NNE 14.1 mph22.7 kmh 29.93 in1013.5 mb 0.00 in0.0 mm 0.00 in0.0 mm 0.00 in0.0 mm
11:22 AM 83.5°F28.6°C 73.9°F23.3°C 73% 8.9 mph N14.3 kmh N 15.0 mph24.1 kmh 29.93 in1013.5 mb 0.00 in0.0 mm 0.00 in0.0 mm 0.00 in0.0 mm
11:27 AM 83.3°F28.5°C 73.8°F23.2°C 73% 8.9 mph N14.3 kmh N 15.0 mph24.1 kmh 29.93 in1013.5 mb 0.00 in0.0 mm 0.00 in0.0 mm 0.00 in0.0 mm
11:32 AM 83.3°F28.5°C 73.8°F23.2°C 73% 8.9 mph NNE14.3 kmh NNE 15.0 mph24.1 kmh 29.93 in1013.5 mb 0.00 in0.0 mm 0.00 in0.0 mm 0.00 in0.0 mm
11:37 AM 83.7°F28.7°C 74.1°F23.4°C 73% 8.1 mph NNE13.0 kmh NNE 14.1 mph22.7 kmh 29.93 in1013.5 mb 0.00 in0.0 mm 0.00 in0.0 mm 0.00 in0.0 mm
11:42 AM 83.1°F28.4°C 73.2°F22.9°C 72% 8.9 mph NNW14.3 kmh NNW 14.1 mph22.7 kmh 29.93 in1013.5 mb 0.00 in0.0 mm 0.00 in0.0 mm 0.00 in0.0 mm
11:47 AM 83.5°F28.6°C 73.6°F23.1°C 72% 8.9 mph N14.3 kmh N 12.1 mph19.5 kmh 29.92 in1013.2 mb 0.00 in0.0 mm 0.00 in0.0 mm 0.00 in0.0 mm
11:52 AM 84.0°F28.9°C 73.9°F23.3°C 72% 6.9 mph N11.1 kmh N 12.1 mph19.5 kmh 29.92 in1013.2 mb 0.00 in0.0 mm 0.00 in0.0 mm 0.00 in0.0 mm
11:57 AM 84.0°F28.9°C 73.6°F23.1°C 71% 6.9 mph NE11.1 kmh NE 13.0 mph20.9 kmh 29.92 in1013.2 mb 0.00 in0.0 mm 0.00 in0.0 mm 0.00 in0.0 mm
12:02 PM 83.7°F28.7°C 73.2°F22.9°C 71% 6.9 mph NNE11.1 kmh NNE 12.1 mph19.5 kmh 29.92 in1013.2 mb 0.00 in0.0 mm 0.00 in0.0 mm 0.00 in0.0 mm
12:07 PM 84.0°F28.9°C 73.6°F23.1°C 71% 6.9 mph NNE11.1 kmh NNE 12.1 mph19.5 kmh 29.92 in1013.2 mb 0.00 in0.0 mm 0.00 in0.0 mm 0.00 in0.0 mm
12:12 PM 83.8°F28.8°C 73.4°F23.0°C 71% 6.9 mph N11.1 kmh N 13.0 mph20.9 kmh 29.92 in1013.2 mb 0.00 in0.0 mm 0.00 in0.0 mm 0.00 in0.0 mm
12:17 PM 84.4°F29.1°C 73.9°F23.3°C 71% 6.0 mph 9.7 kmh 8.9 mph14.3 kmh 29.91 in1012.9 mb 0.00 in0.0 mm 0.00 in0.0 mm 0.00 in0.0 mm
12:22 PM 84.4°F29.1°C 73.6°F23.1°C 70% 4.9 mph 7.9 kmh 11.0 mph17.7 kmh 29.92 in1013.2 mb 0.00 in0.0 mm 0.00 in0.0 mm 0.00 in0.0 mm
12:27 PM 84.0°F28.9°C 73.2°F22.9°C 70% 6.9 mph 11.1 kmh 11.0 mph17.7 kmh 29.91 in1012.9 mb 0.00 in0.0 mm 0.00 in0.0 mm 0.00 in0.0 mm
12:32 PM 84.2°F29.0°C 72.9°F22.7°C 69% 6.9 mph N11.1 kmh N 12.1 mph19.5 kmh 29.91 in1012.9 mb 0.00 in0.0 mm 0.00 in0.0 mm 0.00 in0.0 mm
12:37 PM 84.0°F28.9°C 73.2°F22.9°C 70% 6.9 mph NE11.1 kmh NE 13.0 mph20.9 kmh 29.91 in1012.9 mb 0.00 in0.0 mm 0.00 in0.0 mm 0.00 in0.0 mm
12:42 PM 84.0°F28.9°C 73.6°F23.1°C 71% 6.9 mph NE11.1 kmh NE 13.0 mph20.9 kmh 29.91 in1012.9 mb 0.00 in0.0 mm 0.00 in0.0 mm 0.00 in0.0 mm
12:47 PM 83.8°F28.8°C 73.4°F23.0°C 71% 6.9 mph ENE11.1 kmh ENE 12.1 mph19.5 kmh 29.91 in1012.9 mb 0.00 in0.0 mm 0.00 in0.0 mm 0.00 in0.0 mm
12:52 PM 84.4°F29.1°C 73.9°F23.3°C 71% 6.9 mph NE11.1 kmh NE 12.1 mph19.5 kmh 29.91 in1012.9 mb 0.00 in0.0 mm 0.00 in0.0 mm 0.00 in0.0 mm
12:57 PM 84.6°F29.2°C 73.8°F23.2°C 70% 6.0 mph NNE9.7 kmh NNE 12.1 mph19.5 kmh 29.91 in1012.9 mb 0.00 in0.0 mm 0.00 in0.0 mm 0.00 in0.0 mm
01:02 PM 84.2°F29.0°C 73.4°F23.0°C 70% 6.9 mph NE11.1 kmh NE 12.1 mph19.5 kmh 29.90 in1012.5 mb 0.00 in0.0 mm 0.00 in0.0 mm 0.00 in0.0 mm
01:07 PM 84.4°F29.1°C 73.6°F23.1°C 70% 6.9 mph N11.1 kmh N 12.1 mph19.5 kmh 29.90 in1012.5 mb 0.00 in0.0 mm 0.00 in0.0 mm 0.00 in0.0 mm
01:12 PM 84.4°F29.1°C 73.6°F23.1°C 70% 6.9 mph NE11.1 kmh NE 13.0 mph20.9 kmh 29.90 in1012.5 mb 0.00 in0.0 mm 0.00 in0.0 mm 0.00 in0.0 mm
01:17 PM 84.4°F29.1°C 73.0°F22.8°C 69% 8.1 mph ENE13.0 kmh ENE 12.1 mph19.5 kmh 29.91 in1012.9 mb 0.00 in0.0 mm 0.00 in0.0 mm 0.00 in0.0 mm
01:22 PM 84.2°F29.0°C 72.9°F22.7°C 69% 6.9 mph 11.1 kmh 12.1 mph19.5 kmh 29.90 in1012.5 mb 0.00 in0.0 mm 0.00 in0.0 mm 0.00 in0.0 mm
01:27 PM 84.2°F29.0°C 72.5°F22.5°C 68% 6.9 mph N11.1 kmh N 12.1 mph19.5 kmh 29.90 in1012.5 mb 0.00 in0.0 mm 0.00 in0.0 mm 0.00 in0.0 mm
01:32 PM 84.6°F29.2°C 72.9°F22.7°C 68% 6.9 mph E11.1 kmh E 11.0 mph17.7 kmh 29.90 in1012.5 mb 0.00 in0.0 mm 0.00 in0.0 mm 0.00 in0.0 mm
01:37 PM 84.0°F28.9°C 72.7°F22.6°C 69% 6.9 mph NE11.1 kmh NE 12.1 mph19.5 kmh 29.90 in1012.5 mb 0.00 in0.0 mm 0.00 in0.0 mm 0.00 in0.0 mm
01:42 PM 84.2°F29.0°C 72.5°F22.5°C 68% 8.1 mph ENE13.0 kmh ENE 12.1 mph19.5 kmh 29.90 in1012.5 mb 0.00 in0.0 mm 0.00 in0.0 mm 0.00 in0.0 mm
01:47 PM 84.7°F29.3°C 73.0°F22.8°C 68% 6.0 mph NE9.7 kmh NE 12.1 mph19.5 kmh 29.90 in1012.5 mb 0.00 in0.0 mm 0.00 in0.0 mm 0.00 in0.0 mm
01:52 PM 84.7°F29.3°C 73.0°F22.8°C 68% 6.0 mph NE9.7 kmh NE 11.0 mph17.7 kmh 29.89 in1012.2 mb 0.00 in0.0 mm 0.00 in0.0 mm 0.00 in0.0 mm
01:57 PM 84.4°F29.1°C 72.7°F22.6°C 68% 6.9 mph NE11.1 kmh NE 12.1 mph19.5 kmh 29.89 in1012.2 mb 0.00 in0.0 mm 0.00 in0.0 mm 0.00 in0.0 mm
02:02 PM 84.0°F28.9°C 72.3°F22.4°C 68% 8.1 mph NNE13.0 kmh NNE 13.0 mph20.9 kmh 29.89 in1012.2 mb 0.00 in0.0 mm 0.00 in0.0 mm 0.00 in0.0 mm
02:07 PM 84.4°F29.1°C 72.7°F22.6°C 68% 8.1 mph NE13.0 kmh NE 12.1 mph19.5 kmh 29.89 in1012.2 mb 0.00 in0.0 mm 0.00 in0.0 mm 0.00 in0.0 mm
02:12 PM 84.4°F29.1°C 73.0°F22.8°C 69% 6.9 mph NE11.1 kmh NE 12.1 mph19.5 kmh 29.89 in1012.2 mb 0.00 in0.0 mm 0.00 in0.0 mm 0.00 in0.0 mm
02:17 PM 84.0°F28.9°C 72.7°F22.6°C 69% 8.1 mph NE13.0 kmh NE 13.0 mph20.9 kmh 29.89 in1012.2 mb 0.00 in0.0 mm 0.00 in0.0 mm 0.00 in0.0 mm
02:22 PM 84.0°F28.9°C 73.2°F22.9°C 70% 8.1 mph NE13.0 kmh NE 14.1 mph22.7 kmh 29.88 in1011.9 mb 0.00 in0.0 mm 0.00 in0.0 mm 0.00 in0.0 mm
02:27 PM 84.0°F28.9°C 72.7°F22.6°C 69% 8.1 mph NNE13.0 kmh NNE 14.1 mph22.7 kmh 29.88 in1011.9 mb 0.00 in0.0 mm 0.00 in0.0 mm 0.00 in0.0 mm
02:32 PM 84.2°F29.0°C 72.9°F22.7°C 69% 8.1 mph NE13.0 kmh NE 13.0 mph20.9 kmh 29.88 in1011.9 mb 0.00 in0.0 mm 0.00 in0.0 mm 0.00 in0.0 mm
02:37 PM 84.2°F29.0°C 72.9°F22.7°C 69% 6.9 mph NE11.1 kmh NE 13.0 mph20.9 kmh 29.88 in1011.9 mb 0.00 in0.0 mm 0.00 in0.0 mm 0.00 in0.0 mm
02:42 PM 84.0°F28.9°C 72.7°F22.6°C 69% 8.1 mph NE13.0 kmh NE 12.1 mph19.5 kmh 29.87 in1011.5 mb 0.00 in0.0 mm 0.00 in0.0 mm 0.00 in0.0 mm
02:47 PM 83.7°F28.7°C 72.9°F22.7°C 70% 8.1 mph NE13.0 kmh NE 13.0 mph20.9 kmh 29.88 in1011.9 mb 0.00 in0.0 mm 0.00 in0.0 mm 0.00 in0.0 mm
02:52 PM 83.8°F28.8°C 73.0°F22.8°C 70% 8.1 mph 13.0 kmh 14.1 mph22.7 kmh 29.87 in1011.5 mb 0.00 in0.0 mm 0.00 in0.0 mm 0.00 in0.0 mm
02:57 PM 84.0°F28.9°C 73.2°F22.9°C 70% 8.1 mph N13.0 kmh N 12.1 mph19.5 kmh 29.87 in1011.5 mb 0.00 in0.0 mm 0.00 in0.0 mm 0.00 in0.0 mm
03:02 PM 84.2°F29.0°C 72.5°F22.5°C 68% 6.9 mph N11.1 kmh N 13.0 mph20.9 kmh 29.87 in1011.5 mb 0.00 in0.0 mm 0.00 in0.0 mm 0.00 in0.0 mm
03:07 PM 84.0°F28.9°C 72.7°F22.6°C 69% 8.1 mph N13.0 kmh N 14.1 mph22.7 kmh 29.86 in1011.2 mb 0.00 in0.0 mm 0.00 in0.0 mm 0.00 in0.0 mm
03:12 PM 83.8°F28.8°C 73.0°F22.8°C 70% 8.9 mph NNE14.3 kmh NNE 12.1 mph19.5 kmh 29.87 in1011.5 mb 0.00 in0.0 mm 0.00 in0.0 mm 0.00 in0.0 mm
03:17 PM 84.0°F28.9°C 72.7°F22.6°C 69% 8.1 mph NE13.0 kmh NE 13.0 mph20.9 kmh 29.86 in1011.2 mb 0.00 in0.0 mm 0.00 in0.0 mm 0.00 in0.0 mm
03:22 PM 84.0°F28.9°C 72.7°F22.6°C 69% 6.9 mph 11.1 kmh 14.1 mph22.7 kmh 29.86 in1011.2 mb 0.00 in0.0 mm 0.00 in0.0 mm 0.00 in0.0 mm
03:27 PM 84.0°F28.9°C 72.7°F22.6°C 69% 6.9 mph N11.1 kmh N 13.0 mph20.9 kmh 29.86 in1011.2 mb 0.00 in0.0 mm 0.00 in0.0 mm 0.00 in0.0 mm
03:32 PM 84.0°F28.9°C 72.7°F22.6°C 69% 6.9 mph N11.1 kmh N 11.0 mph17.7 kmh 29.86 in1011.2 mb 0.00 in0.0 mm 0.00 in0.0 mm 0.00 in0.0 mm
03:37 PM 83.8°F28.8°C 73.0°F22.8°C 70% 8.1 mph NNE13.0 kmh NNE 13.0 mph20.9 kmh 29.86 in1011.2 mb 0.00 in0.0 mm 0.00 in0.0 mm 0.00 in0.0 mm
03:42 PM 83.7°F28.7°C 72.9°F22.7°C 70% 8.1 mph NE13.0 kmh NE 12.1 mph19.5 kmh 29.86 in1011.2 mb 0.00 in0.0 mm 0.00 in0.0 mm 0.00 in0.0 mm
03:47 PM 84.0°F28.9°C 73.6°F23.1°C 71% 6.9 mph NE11.1 kmh NE 11.0 mph17.7 kmh 29.86 in1011.2 mb 0.00 in0.0 mm 0.00 in0.0 mm 0.00 in0.0 mm
03:52 PM 83.5°F28.6°C 72.7°F22.6°C 70% 8.1 mph ENE13.0 kmh ENE 14.1 mph22.7 kmh 29.86 in1011.2 mb 0.00 in0.0 mm 0.00 in0.0 mm 0.00 in0.0 mm
03:57 PM 83.5°F28.6°C 73.0°F22.8°C 71% 8.9 mph NNE14.3 kmh NNE 13.0 mph20.9 kmh 29.86 in1011.2 mb 0.00 in0.0 mm 0.00 in0.0 mm 0.00 in0.0 mm
04:02 PM 83.7°F28.7°C 73.2°F22.9°C 71% 8.1 mph N13.0 kmh N 15.0 mph24.1 kmh 29.86 in1011.2 mb 0.00 in0.0 mm 0.00 in0.0 mm 0.00 in0.0 mm
04:07 PM 83.5°F28.6°C 73.0°F22.8°C 71% 8.1 mph NNE13.0 kmh NNE 13.0 mph20.9 kmh 29.86 in1011.2 mb 0.00 in0.0 mm 0.00 in0.0 mm 0.00 in0.0 mm
04:12 PM 83.5°F28.6°C 72.7°F22.6°C 70% 8.1 mph NNE13.0 kmh NNE 12.1 mph19.5 kmh 29.86 in1011.2 mb 0.00 in0.0 mm 0.00 in0.0 mm 0.00 in0.0 mm
04:17 PM 83.5°F28.6°C 72.7°F22.6°C 70% 6.9 mph N11.1 kmh N 12.1 mph19.5 kmh 29.86 in1011.2 mb 0.00 in0.0 mm 0.00 in0.0 mm 0.00 in0.0 mm
04:22 PM 83.1°F28.4°C 72.0°F22.2°C 69% 6.9 mph NE11.1 kmh NE 12.1 mph19.5 kmh 29.86 in1011.2 mb 0.00 in0.0 mm 0.00 in0.0 mm 0.00 in0.0 mm
04:27 PM 82.9°F28.3°C 72.1°F22.3°C 70% 6.9 mph N11.1 kmh N 13.0 mph20.9 kmh 29.87 in1011.5 mb 0.00 in0.0 mm 0.00 in0.0 mm 0.00 in0.0 mm
04:32 PM 82.9°F28.3°C 72.1°F22.3°C 70% 6.9 mph NNE11.1 kmh NNE 11.0 mph17.7 kmh 29.86 in1011.2 mb 0.00 in0.0 mm 0.00 in0.0 mm 0.00 in0.0 mm
04:37 PM 82.9°F28.3°C 72.5°F22.5°C 71% 6.9 mph 11.1 kmh 10.1 mph16.3 kmh 29.87 in1011.5 mb 0.00 in0.0 mm 0.00 in0.0 mm 0.00 in0.0 mm
04:42 PM 82.8°F28.2°C 72.3°F22.4°C 71% 6.0 mph NNE9.7 kmh NNE 11.0 mph17.7 kmh 29.87 in1011.5 mb 0.00 in0.0 mm 0.00 in0.0 mm 0.00 in0.0 mm
04:47 PM 82.9°F28.3°C 72.5°F22.5°C 71% 4.9 mph N7.9 kmh N 8.9 mph14.3 kmh 29.86 in1011.2 mb 0.00 in0.0 mm 0.00 in0.0 mm 0.00 in0.0 mm
04:52 PM 82.9°F28.3°C 73.0°F22.8°C 72% 4.9 mph NE7.9 kmh NE 8.9 mph14.3 kmh 29.86 in1011.2 mb 0.00 in0.0 mm 0.00 in0.0 mm 0.00 in0.0 mm
04:57 PM 82.8°F28.2°C 72.3°F22.4°C 71% 4.9 mph NE7.9 kmh NE 11.0 mph17.7 kmh 29.86 in1011.2 mb 0.00 in0.0 mm 0.00 in0.0 mm 0.00 in0.0 mm
05:02 PM 82.8°F28.2°C 72.0°F22.2°C 70% 4.9 mph NE7.9 kmh NE 11.0 mph17.7 kmh 29.86 in1011.2 mb 0.00 in0.0 mm 0.00 in0.0 mm 0.00 in0.0 mm
05:07 PM 82.9°F28.3°C 72.5°F22.5°C 71% 6.0 mph NE9.7 kmh NE 10.1 mph16.3 kmh 29.86 in1011.2 mb 0.00 in0.0 mm 0.00 in0.0 mm 0.00 in0.0 mm
05:12 PM 82.9°F28.3°C 73.0°F22.8°C 72% 6.0 mph NNE9.7 kmh NNE 8.9 mph14.3 kmh 29.86 in1011.2 mb 0.00 in0.0 mm 0.00 in0.0 mm 0.00 in0.0 mm
05:17 PM 82.9°F28.3°C 72.5°F22.5°C 71% 4.9 mph NNE7.9 kmh NNE 8.1 mph13.0 kmh 29.86 in1011.2 mb 0.00 in0.0 mm 0.00 in0.0 mm 0.00 in0.0 mm
05:22 PM 82.8°F28.2°C 72.3°F22.4°C 71% 4.9 mph NNE7.9 kmh NNE 8.9 mph14.3 kmh 29.86 in1011.2 mb 0.00 in0.0 mm 0.00 in0.0 mm 0.00 in0.0 mm
05:27 PM 82.8°F28.2°C 72.3°F22.4°C 71% 4.9 mph N7.9 kmh N 10.1 mph16.3 kmh 29.87 in1011.5 mb 0.00 in0.0 mm 0.00 in0.0 mm 0.00 in0.0 mm
05:32 PM 82.8°F28.2°C 72.3°F22.4°C 71% 4.9 mph 7.9 kmh 8.9 mph14.3 kmh 29.87 in1011.5 mb 0.00 in0.0 mm 0.00 in0.0 mm 0.00 in0.0 mm
05:37 PM 82.8°F28.2°C 72.9°F22.7°C 72% 4.0 mph N6.4 kmh N 6.9 mph11.1 kmh 29.87 in1011.5 mb 0.00 in0.0 mm 0.00 in0.0 mm 0.00 in0.0 mm
05:42 PM 82.6°F28.1°C 72.1°F22.3°C 71% 4.0 mph NE6.4 kmh NE 6.9 mph11.1 kmh 29.88 in1011.9 mb 0.00 in0.0 mm 0.00 in0.0 mm 0.00 in0.0 mm
05:47 PM 82.6°F28.1°C 72.1°F22.3°C 71% 4.0 mph N6.4 kmh N 8.9 mph14.3 kmh 29.88 in1011.9 mb 0.00 in0.0 mm 0.00 in0.0 mm 0.00 in0.0 mm
05:52 PM 82.6°F28.1°C 71.8°F22.1°C 70% 4.0 mph N6.4 kmh N 8.9 mph14.3 kmh 29.88 in1011.9 mb 0.00 in0.0 mm 0.00 in0.0 mm 0.00 in0.0 mm
05:57 PM 82.6°F28.1°C 72.1°F22.3°C 71% 4.0 mph NE6.4 kmh NE 8.1 mph13.0 kmh 29.88 in1011.9 mb 0.00 in0.0 mm 0.00 in0.0 mm 0.00 in0.0 mm
06:02 PM 82.6°F28.1°C 72.1°F22.3°C 71% 4.9 mph NNE7.9 kmh NNE 8.9 mph14.3 kmh 29.88 in1011.9 mb 0.00 in0.0 mm 0.00 in0.0 mm 0.00 in0.0 mm
06:07 PM 82.4°F28.0°C 72.0°F22.2°C 71% 4.9 mph N7.9 kmh N 8.1 mph13.0 kmh 29.88 in1011.9 mb 0.00 in0.0 mm 0.00 in0.0 mm 0.00 in0.0 mm
06:12 PM 82.4°F28.0°C 72.5°F22.5°C 72% 4.0 mph 6.4 kmh 8.1 mph13.0 kmh 29.88 in1011.9 mb 0.00 in0.0 mm 0.00 in0.0 mm 0.00 in0.0 mm
06:17 PM 82.2°F27.9°C 72.3°F22.4°C 72% 4.0 mph NNW6.4 kmh NNW 8.1 mph13.0 kmh 29.88 in1011.9 mb 0.00 in0.0 mm 0.00 in0.0 mm 0.00 in0.0 mm
06:22 PM 82.2°F27.9°C 72.3°F22.4°C 72% 4.0 mph NNE6.4 kmh NNE 6.0 mph9.7 kmh 29.88 in1011.9 mb 0.00 in0.0 mm 0.00 in0.0 mm 0.00 in0.0 mm
06:27 PM 82.0°F27.8°C 71.8°F22.1°C 71% 4.0 mph N6.4 kmh N 6.9 mph11.1 kmh 29.88 in1011.9 mb 0.00 in0.0 mm 0.00 in0.0 mm 0.00 in0.0 mm
06:32 PM 82.0°F27.8°C 71.8°F22.1°C 71% 4.0 mph N6.4 kmh N 8.1 mph13.0 kmh 29.88 in1011.9 mb 0.00 in0.0 mm 0.00 in0.0 mm 0.00 in0.0 mm
06:37 PM 82.0°F27.8°C 71.8°F22.1°C 71% 4.0 mph N6.4 kmh N 8.1 mph13.0 kmh 29.88 in1011.9 mb 0.00 in0.0 mm 0.00 in0.0 mm 0.00 in0.0 mm
06:42 PM 82.0°F27.8°C 71.8°F22.1°C 71% 4.9 mph NE7.9 kmh NE 8.1 mph13.0 kmh 29.88 in1011.9 mb 0.00 in0.0 mm 0.00 in0.0 mm 0.00 in0.0 mm
06:47 PM 82.0°F27.8°C 71.8°F22.1°C 71% 4.9 mph N7.9 kmh N 8.9 mph14.3 kmh 29.88 in1011.9 mb 0.00 in0.0 mm 0.00 in0.0 mm 0.00 in0.0 mm
06:52 PM 81.9°F27.7°C 71.6°F22.0°C 71% 4.0 mph N6.4 kmh N 8.9 mph14.3 kmh 29.88 in1011.9 mb 0.00 in0.0 mm 0.00 in0.0 mm 0.00 in0.0 mm
06:57 PM 82.0°F27.8°C 72.1°F22.3°C 72% 4.0 mph N6.4 kmh N 6.9 mph11.1 kmh 29.88 in1011.9 mb 0.00 in0.0 mm 0.00 in0.0 mm 0.00 in0.0 mm
07:02 PM 81.9°F27.7°C 71.6°F22.0°C 71% 2.9 mph 4.7 kmh 6.0 mph9.7 kmh 29.88 in1011.9 mb 0.00 in0.0 mm 0.00 in0.0 mm 0.00 in0.0 mm
07:07 PM 81.9°F27.7°C 71.6°F22.0°C 71% 4.0 mph 6.4 kmh 8.1 mph13.0 kmh 29.89 in1012.2 mb 0.00 in0.0 mm 0.00 in0.0 mm 0.00 in0.0 mm
07:12 PM 81.9°F27.7°C 71.6°F22.0°C 71% 2.9 mph NNE4.7 kmh NNE 4.9 mph7.9 kmh 29.89 in1012.2 mb 0.00 in0.0 mm 0.00 in0.0 mm 0.00 in0.0 mm
07:17 PM 81.7°F27.6°C 71.4°F21.9°C 71% 2.0 mph NNE3.2 kmh NNE 8.1 mph13.0 kmh 29.89 in1012.2 mb 0.00 in0.0 mm 0.00 in0.0 mm 0.00 in0.0 mm
07:22 PM 81.7°F27.6°C 71.4°F21.9°C 71% 2.0 mph NNW3.2 kmh NNW 4.9 mph7.9 kmh 29.89 in1012.2 mb 0.00 in0.0 mm 0.00 in0.0 mm 0.00 in0.0 mm
07:27 PM 81.3°F27.4°C 71.1°F21.7°C 71% 2.0 mph NNW3.2 kmh NNW 4.9 mph7.9 kmh 29.90 in1012.5 mb 0.00 in0.0 mm 0.00 in0.0 mm 0.00 in0.0 mm
07:32 PM 81.3°F27.4°C 71.1°F21.7°C 71% 0.9 mph NNW1.4 kmh NNW 4.0 mph6.4 kmh 29.90 in1012.5 mb 0.00 in0.0 mm 0.00 in0.0 mm 0.00 in0.0 mm
07:37 PM 81.3°F27.4°C 71.1°F21.7°C 71% 2.0 mph W3.2 kmh W 4.0 mph6.4 kmh 29.90 in1012.5 mb 0.00 in0.0 mm 0.00 in0.0 mm 0.00 in0.0 mm
07:42 PM 81.1°F27.3°C 70.9°F21.6°C 71% 2.0 mph NW3.2 kmh NW 4.0 mph6.4 kmh 29.91 in1012.9 mb 0.00 in0.0 mm 0.00 in0.0 mm 0.00 in0.0 mm
07:47 PM 81.1°F27.3°C 70.9°F21.6°C 71% 0.9 mph NNW1.4 kmh NNW 2.9 mph4.7 kmh 29.90 in1012.5 mb 0.00 in0.0 mm 0.00 in0.0 mm 0.00 in0.0 mm
07:52 PM 81.0°F27.2°C 70.7°F21.5°C 71% 0.9 mph NW1.4 kmh NW 4.0 mph6.4 kmh 29.90 in1012.5 mb 0.00 in0.0 mm 0.00 in0.0 mm 0.00 in0.0 mm
07:57 PM 81.0°F27.2°C 70.7°F21.5°C 71% 2.0 mph NW3.2 kmh NW 2.9 mph4.7 kmh 29.90 in1012.5 mb 0.00 in0.0 mm 0.00 in0.0 mm 0.00 in0.0 mm
08:02 PM 80.8°F27.1°C 70.2°F21.2°C 70% 2.0 mph W3.2 kmh W 4.0 mph6.4 kmh 29.90 in1012.5 mb 0.00 in0.0 mm 0.00 in0.0 mm 0.00 in0.0 mm
08:07 PM 80.8°F27.1°C 69.6°F20.9°C 69% 0.9 mph NW1.4 kmh NW 2.9 mph4.7 kmh 29.90 in1012.5 mb 0.00 in0.0 mm 0.00 in0.0 mm 0.00 in0.0 mm
08:12 PM 80.6°F27.0°C 69.1°F20.6°C 68% 2.0 mph NW3.2 kmh NW 6.0 mph9.7 kmh 29.90 in1012.5 mb 0.00 in0.0 mm 0.00 in0.0 mm 0.00 in0.0 mm
08:17 PM 80.4°F26.9°C 69.3°F20.7°C 69% 2.0 mph WNW3.2 kmh WNW 6.9 mph11.1 kmh 29.90 in1012.5 mb 0.00 in0.0 mm 0.00 in0.0 mm 0.00 in0.0 mm
08:22 PM 80.1°F26.7°C 68.9°F20.5°C 69% 2.0 mph NNW3.2 kmh NNW 4.0 mph6.4 kmh 29.91 in1012.9 mb 0.00 in0.0 mm 0.00 in0.0 mm 0.00 in0.0 mm
08:27 PM 79.7°F26.5°C 68.5°F20.3°C 69% 2.0 mph WNW3.2 kmh WNW 6.9 mph11.1 kmh 29.90 in1012.5 mb 0.00 in0.0 mm 0.00 in0.0 mm 0.00 in0.0 mm
08:32 PM 79.7°F26.5°C 68.5°F20.3°C 69% 2.0 mph WNW3.2 kmh WNW 4.0 mph6.4 kmh 29.91 in1012.9 mb 0.00 in0.0 mm 0.00 in0.0 mm 0.00 in0.0 mm
08:37 PM 79.5°F26.4°C 68.5°F20.3°C 69% 2.0 mph W3.2 kmh W 6.0 mph9.7 kmh 29.90 in1012.5 mb 0.00 in0.0 mm 0.00 in0.0 mm 0.00 in0.0 mm
08:42 PM 79.3°F26.3°C 68.4°F20.2°C 69% 2.0 mph W3.2 kmh W 6.0 mph9.7 kmh 29.90 in1012.5 mb 0.00 in0.0 mm 0.00 in0.0 mm 0.00 in0.0 mm
08:47 PM 79.3°F26.3°C 68.4°F20.2°C 69% 2.0 mph WNW3.2 kmh WNW 6.0 mph9.7 kmh 29.90 in1012.5 mb 0.00 in0.0 mm 0.00 in0.0 mm 0.00 in0.0 mm
08:52 PM 79.3°F26.3°C 67.8°F19.9°C 68% 2.9 mph W4.7 kmh W 10.1 mph16.3 kmh 29.90 in1012.5 mb 0.00 in0.0 mm 0.00 in0.0 mm 0.00 in0.0 mm
08:57 PM 79.3°F26.3°C 67.8°F19.9°C 68% 2.9 mph W4.7 kmh W 6.0 mph9.7 kmh 29.90 in1012.5 mb 0.00 in0.0 mm 0.00 in0.0 mm 0.00 in0.0 mm
09:02 PM 79.3°F26.3°C 67.5°F19.7°C 67% 2.9 mph WSW4.7 kmh WSW 6.0 mph9.7 kmh 29.90 in1012.5 mb 0.00 in0.0 mm 0.00 in0.0 mm 0.00 in0.0 mm
09:07 PM 79.3°F26.3°C 67.5°F19.7°C 67% 2.9 mph WNW4.7 kmh WNW 6.0 mph9.7 kmh 29.90 in1012.5 mb 0.00 in0.0 mm 0.00 in0.0 mm 0.00 in0.0 mm
09:12 PM 79.3°F26.3°C 67.5°F19.7°C 67% 2.0 mph W3.2 kmh W 6.0 mph9.7 kmh 29.90 in1012.5 mb 0.00 in0.0 mm 0.00 in0.0 mm 0.00 in0.0 mm
09:18 PM 79.3°F26.3°C 67.5°F19.7°C 67% 0.9 mph NW1.4 kmh NW 4.0 mph6.4 kmh 29.90 in1012.5 mb 0.00 in0.0 mm 0.00 in0.0 mm 0.00 in0.0 mm
09:23 PM 79.3°F26.3°C 67.5°F19.7°C 67% 2.0 mph WNW3.2 kmh WNW 4.0 mph6.4 kmh 29.90 in1012.5 mb 0.00 in0.0 mm 0.00 in0.0 mm 0.00 in0.0 mm
09:28 PM 79.3°F26.3°C 67.5°F19.7°C 67% 2.9 mph WNW4.7 kmh WNW 8.1 mph13.0 kmh 29.90 in1012.5 mb 0.00 in0.0 mm 0.00 in0.0 mm 0.00 in0.0 mm
09:33 PM 79.3°F26.3°C 67.5°F19.7°C 67% 4.0 mph NW6.4 kmh NW 6.9 mph11.1 kmh 29.90 in1012.5 mb 0.00 in0.0 mm 0.00 in0.0 mm 0.00 in0.0 mm
09:38 PM 79.3°F26.3°C 67.5°F19.7°C 67% 4.0 mph NNW6.4 kmh NNW 8.1 mph13.0 kmh 29.90 in1012.5 mb 0.00 in0.0 mm 0.00 in0.0 mm 0.00 in0.0 mm
09:43 PM 79.2°F26.2°C 67.3°F19.6°C 67% 4.0 mph WNW6.4 kmh WNW 10.1 mph16.3 kmh 29.90 in1012.5 mb 0.00 in0.0 mm 0.00 in0.0 mm 0.00 in0.0 mm
09:48 PM 79.2°F26.2°C 67.3°F19.6°C 67% 2.9 mph NW4.7 kmh NW 6.9 mph11.1 kmh 29.90 in1012.5 mb 0.00 in0.0 mm 0.00 in0.0 mm 0.00 in0.0 mm
09:53 PM 78.6°F25.9°C 66.7°F19.3°C 67% 2.9 mph NW4.7 kmh NW 8.1 mph13.0 kmh 29.90 in1012.5 mb 0.00 in0.0 mm 0.00 in0.0 mm 0.00 in0.0 mm
09:58 PM 78.4°F25.8°C 66.9°F19.4°C 68% 2.9 mph W4.7 kmh W 8.1 mph13.0 kmh 29.91 in1012.9 mb 0.00 in0.0 mm 0.00 in0.0 mm 0.00 in0.0 mm
10:03 PM 78.1°F25.6°C 66.7°F19.3°C 68% 2.9 mph NW4.7 kmh NW 6.9 mph11.1 kmh 29.91 in1012.9 mb 0.00 in0.0 mm 0.00 in0.0 mm 0.00 in0.0 mm
10:08 PM 77.9°F25.5°C 66.9°F19.4°C 69% 2.9 mph W4.7 kmh W 8.1 mph13.0 kmh 29.91 in1012.9 mb 0.00 in0.0 mm 0.00 in0.0 mm 0.00 in0.0 mm
10:13 PM 77.5°F25.3°C 66.6°F19.2°C 69% 4.0 mph NW6.4 kmh NW 8.9 mph14.3 kmh 29.91 in1012.9 mb 0.00 in0.0 mm 0.00 in0.0 mm 0.00 in0.0 mm
10:18 PM 77.4°F25.2°C 66.7°F19.3°C 70% 4.0 mph NW6.4 kmh NW 8.1 mph13.0 kmh 29.91 in1012.9 mb 0.00 in0.0 mm 0.00 in0.0 mm 0.00 in0.0 mm
10:23 PM 77.2°F25.1°C 66.6°F19.2°C 70% 4.0 mph WNW6.4 kmh WNW 8.1 mph13.0 kmh 29.91 in1012.9 mb 0.00 in0.0 mm 0.00 in0.0 mm 0.00 in0.0 mm
10:28 PM 77.0°F25.0°C 66.4°F19.1°C 70% 4.0 mph N6.4 kmh N 8.9 mph14.3 kmh 29.91 in1012.9 mb 0.00 in0.0 mm 0.00 in0.0 mm 0.00 in0.0 mm
10:33 PM 77.0°F25.0°C 66.4°F19.1°C 70% 4.0 mph W6.4 kmh W 8.1 mph13.0 kmh 29.91 in1012.9 mb 0.00 in0.0 mm 0.00 in0.0 mm 0.00 in0.0 mm
10:38 PM 76.8°F24.9°C 66.2°F19.0°C 70% 4.0 mph WNW6.4 kmh WNW 8.1 mph13.0 kmh 29.91 in1012.9 mb 0.00 in0.0 mm 0.00 in0.0 mm 0.00 in0.0 mm
10:43 PM 76.6°F24.8°C 66.6°F19.2°C 71% 4.0 mph W6.4 kmh W 8.1 mph13.0 kmh 29.90 in1012.5 mb 0.00 in0.0 mm 0.00 in0.0 mm 0.00 in0.0 mm
10:48 PM 76.8°F24.9°C 66.2°F19.0°C 70% 4.0 mph WNW6.4 kmh WNW 6.9 mph11.1 kmh 29.90 in1012.5 mb 0.00 in0.0 mm 0.00 in0.0 mm 0.00 in0.0 mm
10:53 PM 77.4°F25.2°C 66.4°F19.1°C 69% 4.0 mph W6.4 kmh W 8.1 mph13.0 kmh 29.91 in1012.9 mb 0.00 in0.0 mm 0.00 in0.0 mm 0.00 in0.0 mm
10:58 PM 77.7°F25.4°C 66.7°F19.3°C 69% 4.0 mph W6.4 kmh W 6.9 mph11.1 kmh 29.91 in1012.9 mb 0.00 in0.0 mm 0.00 in0.0 mm 0.00 in0.0 mm
11:03 PM 78.1°F25.6°C 66.7°F19.3°C 68% 2.9 mph W4.7 kmh W 6.0 mph9.7 kmh 29.90 in1012.5 mb 0.00 in0.0 mm 0.00 in0.0 mm 0.00 in0.0 mm
11:08 PM 78.3°F25.7°C 66.4°F19.1°C 67% 2.9 mph WSW4.7 kmh WSW 6.9 mph11.1 kmh 29.90 in1012.5 mb 0.00 in0.0 mm 0.00 in0.0 mm 0.00 in0.0 mm
11:13 PM 78.1°F25.6°C 66.2°F19.0°C 67% 4.0 mph NW6.4 kmh NW 9.0 mph14.5 kmh 29.90 in1012.5 mb 0.00 in0.0 mm 0.00 in0.0 mm 0.00 in0.0 mm
11:18 PM 77.7°F25.4°C 65.8°F18.8°C 67% 4.9 mph N7.9 kmh N 12.1 mph19.5 kmh 29.90 in1012.5 mb 0.00 in0.0 mm 0.00 in0.0 mm 0.00 in0.0 mm
11:23 PM 77.4°F25.2°C 66.0°F18.9°C 68% 4.9 mph NW7.9 kmh NW 8.1 mph13.0 kmh 29.90 in1012.5 mb 0.00 in0.0 mm 0.00 in0.0 mm 0.00 in0.0 mm
11:28 PM 77.0°F25.0°C 65.7°F18.7°C 68% 4.0 mph WSW6.4 kmh WSW 8.1 mph13.0 kmh 29.90 in1012.5 mb 0.00 in0.0 mm 0.00 in0.0 mm 0.00 in0.0 mm
11:33 PM 77.2°F25.1°C 65.8°F18.8°C 68% 4.0 mph W6.4 kmh W 12.1 mph19.5 kmh 29.90 in1012.5 mb 0.00 in0.0 mm 0.00 in0.0 mm 0.00 in0.0 mm
11:38 PM 77.4°F25.2°C 65.5°F18.6°C 67% 4.0 mph W6.4 kmh W 8.1 mph13.0 kmh 29.89 in1012.2 mb 0.00 in0.0 mm 0.00 in0.0 mm 0.00 in0.0 mm
11:43 PM 77.5°F25.3°C 65.3°F18.5°C 66% 4.0 mph W6.4 kmh W 8.9 mph14.3 kmh 29.89 in1012.2 mb 0.00 in0.0 mm 0.00 in0.0 mm 0.00 in0.0 mm
11:48 PM 77.7°F25.4°C 65.5°F18.6°C 66% 4.0 mph WNW6.4 kmh WNW 8.9 mph14.3 kmh 29.89 in1012.2 mb 0.00 in0.0 mm 0.00 in0.0 mm 0.00 in0.0 mm
11:53 PM 77.7°F25.4°C 65.5°F18.6°C 66% 6.0 mph W9.7 kmh W 11.0 mph17.7 kmh 29.89 in1012.2 mb 0.00 in0.0 mm 0.00 in0.0 mm 0.00 in0.0 mm
11:58 PM 77.7°F25.4°C 65.5°F18.6°C 66% 6.0 mph WNW9.7 kmh WNW 10.1 mph16.3 kmh 29.89 in1012.2 mb 0.00 in0.0 mm 0.00 in0.0 mm 0.00 in0.0 mm